Time;durP1;ratioP1;P1;durP2;ratioP2;P2;SDS_P1;SDS_P2;PMS_P1;PMS_P2;Temp;Humidity;BMP_temperature;BMP_pressure;BME280_temperature;BME280_humidity;BME280_pressure;Samples;Min_cycle;Max_cycle;Signal;HPM_P1;HPM_P2
2022/09/08 00:00:06;;;;;;;28.38;17.10;;;;;;;8.02;90.07;99540.64;1745691;82;20981;-71
2022/09/08 00:02:36;;;;;;;27.25;17.77;;;;;;;8.00;91.00;99534.66;1744518;82;21402;-71
2022/09/08 00:05:05;;;;;;;22.73;14.18;;;;;;;8.00;91.43;99536.40;1744980;82;21398;-70
2022/09/08 00:07:32;;;;;;;20.17;13.15;;;;;;;8.00;92.42;99532.52;1745125;82;20965;-70
2022/09/08 00:10:00;;;;;;;26.97;15.88;;;;;;;8.00;93.78;99530.77;1744780;81;21024;-71
2022/09/08 00:12:29;;;;;;;22.70;14.95;;;;;;;8.01;94.65;99531.17;1745450;82;21017;-71
2022/09/08 00:14:59;;;;;;;19.60;13.70;;;;;;;8.00;94.63;99530.77;1745292;82;21767;-71
2022/09/08 00:17:27;;;;;;;21.68;14.28;;;;;;;7.99;95.10;99521.34;1725601;82;21379;-70
2022/09/08 00:19:53;;;;;;;21.37;14.50;;;;;;;7.99;95.41;99523.08;1748708;82;21394;-71
2022/09/08 00:22:19;;;;;;;22.35;14.98;;;;;;;7.98;95.69;99523.97;1745339;82;21465;-71
2022/09/08 00:24:46;;;;;;;25.60;16.30;;;;;;;7.97;95.92;99519.23;1746611;81;20926;-70
2022/09/08 00:27:12;;;;;;;24.02;15.18;;;;;;;7.99;96.03;99515.31;1745807;82;21099;-70
2022/09/08 00:29:39;;;;;;;16.30;11.43;;;;;;;7.98;95.55;99509.28;1745764;82;21016;-71
2022/09/08 00:32:05;;;;;;;21.10;13.08;;;;;;;7.97;94.31;99503.70;1745764;82;21066;-70
2022/09/08 00:34:34;;;;;;;18.48;12.30;;;;;;;7.96;93.38;99504.59;1745578;82;20938;-71
2022/09/08 00:37:00;;;;;;;20.20;13.08;;;;;;;7.94;92.78;99511.11;1745686;82;20969;-70
2022/09/08 00:39:27;;;;;;;20.35;13.10;;;;;;;7.92;92.31;99512.89;1745721;82;21110;-71
2022/09/08 00:41:55;;;;;;;17.73;13.48;;;;;;;7.88;92.35;99508.69;1724742;82;20901;-71
2022/09/08 00:44:37;;;;;;;20.43;14.18;;;;;;;7.85;92.03;99504.05;1745741;82;21005;-71
2022/09/08 00:47:03;;;;;;;24.18;14.05;;;;;;;7.78;91.84;99498.22;1745878;82;20934;-71
2022/09/08 00:49:30;;;;;;;21.17;13.62;;;;;;;7.70;91.58;99501.47;1745765;82;21469;-71
2022/09/08 00:51:57;;;;;;;19.77;13.08;;;;;;;7.63;91.68;99505.13;1745681;82;21242;-71
2022/09/08 00:54:24;;;;;;;15.88;10.63;;;;;;;7.56;91.91;99501.03;1724506;82;21397;-71
2022/09/08 00:56:52;;;;;;;13.83;10.50;;;;;;;7.50;91.38;99506.37;1745722;82;20992;-71
2022/09/08 00:59:20;;;;;;;12.73;9.05;;;;;;;7.42;90.83;99513.05;1745699;82;20977;-71
2022/09/08 01:01:46;;;;;;;11.60;8.98;;;;;;;7.34;90.38;99515.02;1740535;82;20973;-71
2022/09/08 01:04:13;;;;;;;12.80;9.35;;;;;;;7.25;90.05;99516.55;1740609;81;21080;-71
2022/09/08 01:13:01;;;;;;;12.60;9.10;;;;;;;7.06;89.37;99516.64;1745830;82;21012;-71
2022/09/08 01:15:28;;;;;;;12.85;7.92;;;;;;;7.01;89.26;99514.17;1724490;82;21027;-71
2022/09/08 01:17:55;;;;;;;10.85;7.28;;;;;;;6.97;89.19;99515.61;1745692;82;21153;-70
2022/09/08 01:20:36;;;;;;;9.13;6.97;;;;;;;6.95;88.91;99521.26;1724351;82;20981;-70
2022/09/08 01:23:23;;;;;;;14.85;9.98;;;;;;;6.94;88.80;99516.97;1745844;82;21561;-71
2022/09/08 01:26:22;;;;;;;17.57;10.95;;;;;;;6.96;90.46;99525.54;1729981;81;21480;-71
2022/09/08 01:28:57;;;;;;;16.32;10.08;;;;;;;6.99;92.13;99517.27;1711069;82;20969;-70
2022/09/08 01:31:23;;;;;;;12.18;9.28;;;;;;;7.01;92.76;99518.05;1742757;82;21214;-70
2022/09/08 01:33:50;;;;;;;12.85;9.75;;;;;;;7.04;93.47;99525.73;1745688;82;21033;-70
2022/09/08 01:36:18;;;;;;;13.78;9.50;;;;;;;7.04;93.71;99524.44;1724829;82;20929;-70
2022/09/08 01:38:45;;;;;;;18.87;10.98;;;;;;;7.04;93.96;99523.59;1724860;82;20939;-70
2022/09/08 01:41:13;;;;;;;14.95;10.95;;;;;;;7.03;94.26;99516.27;1746018;82;21044;-70
2022/09/08 01:43:40;;;;;;;15.50;11.30;;;;;;;7.03;94.93;99510.25;1745671;82;21573;-70
2022/09/08 01:46:07;;;;;;;15.85;10.23;;;;;;;7.02;95.15;99512.43;1745129;82;20937;-70
2022/09/08 01:48:33;;;;;;;15.32;10.05;;;;;;;7.02;95.39;99507.26;1745859;82;21034;-70
2022/09/08 01:51:01;;;;;;;18.20;11.00;;;;;;;7.02;95.91;99503.38;1745690;82;21481;-70
2022/09/08 01:53:28;;;;;;;14.95;11.40;;;;;;;7.04;96.29;99499.02;1745727;82;21076;-70
2022/09/08 01:55:54;;;;;;;15.72;10.45;;;;;;;7.05;96.37;99500.72;1745924;81;21207;-70
2022/09/08 01:58:21;;;;;;;17.27;11.38;;;;;;;7.04;96.41;99505.04;1745544;82;20940;-70
2022/09/08 02:00:48;;;;;;;16.60;10.88;;;;;;;7.01;96.58;99505.12;1745690;82;20997;-70
2022/09/08 02:03:14;;;;;;;17.15;11.20;;;;;;;7.01;96.65;99505.12;1745966;82;21437;-70
2022/09/08 02:05:43;;;;;;;18.17;11.73;;;;;;;6.99;96.60;99511.25;1744448;82;21461;-70
2022/09/08 02:08:10;;;;;;;14.85;10.85;;;;;;;6.95;96.99;99517.38;1745645;82;21231;-70
2022/09/08 02:10:36;;;;;;;21.73;11.75;;;;;;;6.94;97.50;99517.82;1747860;81;21002;-70
2022/09/08 02:13:03;;;;;;;16.62;11.48;;;;;;;6.95;97.92;99510.91;1751163;82;21048;-70
2022/09/08 02:15:31;;;;;;;17.40;10.90;;;;;;;6.95;98.16;99511.77;1751322;82;21025;-70
2022/09/08 02:17:58;;;;;;;15.45;9.75;;;;;;;6.96;98.14;99504.86;1724887;81;21064;-70
2022/09/08 02:20:26;;;;;;;15.65;10.48;;;;;;;6.95;98.07;99499.28;1745731;82;21596;-70
2022/09/08 02:22:53;;;;;;;16.07;10.45;;;;;;;6.96;98.12;99505.70;1745841;82;20918;-70
2022/09/08 02:25:21;;;;;;;15.58;10.90;;;;;;;6.94;98.12;99499.72;1745942;82;21021;-70
2022/09/08 02:27:52;;;;;;;14.65;9.63;;;;;;;6.95;98.06;99503.16;1745854;82;21521;-70
2022/09/08 02:30:20;;;;;;;15.08;10.53;;;;;;;6.94;98.34;99510.06;1746414;82;21480;-70
2022/09/08 02:32:49;;;;;;;14.70;9.73;;;;;;;6.89;98.42;99506.30;1745935;82;21233;-70
2022/09/08 02:35:16;;;;;;;15.38;10.13;;;;;;;6.87;98.47;99504.20;1745814;82;20973;-71
2022/09/08 02:37:43;;;;;;;14.25;10.80;;;;;;;6.88;98.89;99504.60;1745786;82;20930;-71
2022/09/08 02:40:10;;;;;;;19.30;12.20;;;;;;;6.90;99.10;99514.46;1745890;82;21063;-71
2022/09/08 02:42:36;;;;;;;24.25;14.40;;;;;;;6.89;99.22;99509.33;1746138;82;20921;-71
2022/09/08 02:45:05;;;;;;;15.75;11.45;;;;;;;6.88;99.62;99505.89;1745870;82;21030;-71
2022/09/08 02:47:34;;;;;;;14.35;10.70;;;;;;;6.89;99.82;99511.91;1745766;82;20997;-71
2022/09/08 02:50:01;;;;;;;21.77;12.65;;;;;;;6.89;99.89;99505.45;1745782;82;20969;-71
2022/09/08 02:52:30;;;;;;;20.45;13.30;;;;;;;6.88;99.84;99502.02;1745767;82;21040;-71
2022/09/08 02:54:58;;;;;;;16.35;11.43;;;;;;;6.87;100.00;99509.37;1745849;82;20929;-71
2022/09/08 02:57:25;;;;;;;17.60;12.30;;;;;;;6.85;100.00;99508.55;1745769;82;21771;-71
2022/09/08 02:59:51;;;;;;;15.93;11.53;;;;;;;6.84;100.00;99507.30;1745746;82;21461;-71
2022/09/08 03:02:17;;;;;;;17.12;11.03;;;;;;;6.82;100.00;99515.09;1745775;82;21397;-71
2022/09/08 03:04:44;;;;;;;18.82;12.65;;;;;;;6.81;100.00;99515.97;1745795;82;21418;-72
2022/09/08 03:07:11;;;;;;;18.50;12.65;;;;;;;6.79;100.00;99513.05;1745763;82;21489;-71
2022/09/08 03:09:37;;;;;;;21.57;14.68;;;;;;;6.79;100.00;99513.05;1745850;82;21484;-71
2022/09/08 03:12:04;;;;;;;21.68;15.25;;;;;;;6.77;100.00;99501.45;1746012;81;20933;-71
2022/09/08 03:14:31;;;;;;;20.43;13.78;;;;;;;6.76;100.00;99498.47;1745834;82;21025;-71
2022/09/08 03:16:59;;;;;;;19.42;13.32;;;;;;;6.74;100.00;99503.27;1745830;82;21526;-71
2022/09/08 03:19:26;;;;;;;15.55;10.82;;;;;;;6.69;100.00;99507.69;1745795;82;21465;-71
2022/09/08 03:21:52;;;;;;;19.48;14.28;;;;;;;6.66;100.00;99499.57;1745845;82;21220;-71
2022/09/08 03:24:19;;;;;;;19.10;12.58;;;;;;;6.64;100.00;99505.22;1745820;82;20977;-69
2022/09/08 03:26:46;;;;;;;23.60;14.98;;;;;;;6.64;100.00;99516.84;1745832;82;20973;-69
2022/09/08 03:29:12;;;;;;;19.27;13.40;;;;;;;6.63;100.00;99519.47;1745933;82;20973;-71
2022/09/08 03:31:39;;;;;;;22.98;12.45;;;;;;;6.61;100.00;99514.33;1745810;82;21041;-71
2022/09/08 03:34:06;;;;;;;18.80;12.75;;;;;;;6.61;100.00;99510.90;1745764;82;21069;-71
2022/09/08 03:36:33;;;;;;;18.23;13.08;;;;;;;6.60;100.00;99505.33;1745741;82;20993;-71
2022/09/08 03:39:01;;;;;;;17.87;11.08;;;;;;;6.59;100.00;99513.55;1745878;82;20961;-71
2022/09/08 03:41:28;;;;;;;20.20;11.00;;;;;;;6.61;100.00;99513.04;1745884;82;21061;-71
2022/09/08 03:43:56;;;;;;;17.70;11.03;;;;;;;6.65;99.97;99507.36;1746006;82;20934;-71
2022/09/08 03:46:23;;;;;;;13.22;10.18;;;;;;;6.71;99.63;99513.23;1745743;82;21112;-71
2022/09/08 03:48:49;;;;;;;21.97;10.25;;;;;;;6.78;99.20;99515.23;1745658;82;21080;-71
2022/09/08 03:51:25;;;;;;;19.10;12.23;;;;;;;6.80;98.80;99518.16;1745829;82;20981;-71
2022/09/08 03:53:52;;;;;;;30.57;14.73;;;;;;;6.85;98.67;99523.22;1713792;83;21057;-72
2022/09/08 03:56:19;;;;;;;37.55;12.68;;;;;;;6.90;98.66;99514.91;1716060;83;21038;-71
2022/09/08 03:58:46;;;;;;;15.28;8.68;;;;;;;6.95;98.10;99514.80;1715979;83;21672;-71
2022/09/08 04:01:15;;;;;;;18.02;8.43;;;;;;;6.98;97.17;99510.84;1705077;82;21529;-72
2022/09/08 04:03:43;;;;;;;25.82;10.20;;;;;;;7.00;96.35;99515.05;1746026;82;20941;-72
2022/09/08 04:06:10;;;;;;;20.25;9.63;;;;;;;7.03;95.70;99522.73;1746011;82;21016;-72
2022/09/08 04:08:36;;;;;;;14.38;8.33;;;;;;;7.06;95.42;99522.66;1745888;82;20933;-73
2022/09/08 04:11:05;;;;;;;10.68;7.37;;;;;;;7.11;94.90;99535.48;1731831;82;21652;-72
2022/09/08 04:13:32;;;;;;;15.30;7.10;;;;;;;7.14;94.53;99530.23;1712542;83;21042;-72
2022/09/08 04:15:59;;;;;;;9.50;7.00;;;;;;;7.19;94.01;99534.37;1713148;83;21123;-72
2022/09/08 04:18:25;;;;;;;10.43;6.20;;;;;;;7.31;93.59;99534.95;1712693;83;20970;-72
2022/09/08 04:20:59;;;;;;;11.75;6.97;;;;;;;7.47;92.95;99537.06;1689022;83;21094;-72
2022/09/08 04:23:26;;;;;;;10.35;6.83;;;;;;;7.62;92.07;99538.37;1711828;83;21771;-72
2022/09/08 04:26:01;;;;;;;11.65;6.15;;;;;;;7.76;91.44;99540.58;1712785;83;20950;-72
2022/09/08 04:28:28;;;;;;;9.18;6.72;;;;;;;7.95;90.61;99546.47;1712492;83;21124;-72
2022/09/08 04:30:54;;;;;;;16.48;7.45;;;;;;;8.10;89.48;99548.20;1684999;83;20977;-72
2022/09/08 04:33:20;;;;;;;13.13;7.75;;;;;;;8.21;89.19;99546.96;1712979;83;21030;-72
2022/09/08 04:35:47;;;;;;;17.65;7.28;;;;;;;8.38;89.72;99545.20;1713000;83;21146;-72
2022/09/08 04:38:13;;;;;;;14.03;7.55;;;;;;;8.52;89.31;99546.91;1684860;83;21014;-72
2022/09/08 04:40:41;;;;;;;14.47;8.75;;;;;;;8.65;89.02;99551.23;1712918;83;21065;-72
2022/09/08 04:43:08;;;;;;;20.72;9.90;;;;;;;8.74;89.01;99548.36;1712518;82;21030;-72
2022/09/08 04:45:35;;;;;;;18.80;9.83;;;;;;;8.84;89.02;99548.44;1712596;83;20958;-71
2022/09/08 04:48:02;;;;;;;12.70;8.93;;;;;;;8.95;89.03;99548.09;1712968;83;21148;-71
2022/09/08 04:50:28;;;;;;;20.43;9.20;;;;;;;9.02;88.23;99552.16;1711829;83;21039;-71
2022/09/08 04:52:55;;;;;;;22.70;10.45;;;;;;;9.08;87.94;99542.03;1684796;83;20982;-72
2022/09/08 04:55:22;;;;;;;23.65;9.55;;;;;;;9.15;87.65;99535.75;1713152;83;21010;-71
2022/09/08 04:57:49;;;;;;;19.07;9.20;;;;;;;9.25;87.41;99535.80;1712295;83;21089;-71
2022/09/08 05:00:18;;;;;;;22.35;8.88;;;;;;;9.41;87.38;99538.70;1710056;83;21758;-72
2022/09/08 05:02:46;;;;;;;36.58;11.20;;;;;;;9.65;87.25;99540.42;1710050;83;21415;-72
2022/09/08 05:05:13;;;;;;;28.10;11.88;;;;;;;9.96;86.99;99541.45;1710447;83;20951;-72
2022/09/08 05:07:41;;;;;;;16.15;9.65;;;;;;;10.30;86.11;99542.32;1710007;83;21074;-72
2022/09/08 05:10:08;;;;;;;20.48;9.30;;;;;;;10.63;85.06;99538.37;1709444;83;21280;-72
2022/09/08 05:12:37;;;;;;;22.77;9.88;;;;;;;10.93;83.74;99540.63;1736434;82;21787;-72
2022/09/08 05:15:05;;;;;;;21.45;9.55;;;;;;;11.24;82.47;99534.50;1718617;82;21004;-72
2022/09/08 05:17:33;;;;;;;20.60;9.18;;;;;;;11.48;80.79;99536.95;1742896;82;21090;-72
2022/09/08 05:20:00;;;;;;;30.27;11.97;;;;;;;11.62;79.89;99537.19;1743675;82;21328;-72
2022/09/08 05:22:27;;;;;;;13.95;7.55;;;;;;;11.67;79.29;99538.67;1744014;82;21570;-72
2022/09/08 05:24:53;;;;;;;13.72;8.40;;;;;;;11.72;79.07;99537.17;1736214;81;21612;-72
2022/09/08 05:27:20;;;;;;;23.47;10.28;;;;;;;11.77;79.24;99538.31;1733744;82;21055;-72
2022/09/08 05:29:48;;;;;;;19.90;8.95;;;;;;;11.80;79.13;99544.66;1732843;81;21314;-72
2022/09/08 05:32:14;;;;;;;20.02;9.23;;;;;;;11.86;78.50;99545.23;1747871;80;21018;-71
2022/09/08 05:34:41;;;;;;;14.40;10.65;;;;;;;11.93;78.34;99541.91;1768989;80;21041;-72
2022/09/08 05:37:08;;;;;;;15.50;8.60;;;;;;;12.03;78.30;99542.70;1768610;80;21136;-72
2022/09/08 05:39:34;;;;;;;14.35;8.00;;;;;;;12.16;78.40;99536.48;1743121;81;21536;-72
2022/09/08 05:42:01;;;;;;;13.83;7.95;;;;;;;12.30;78.12;99541.03;1719408;83;21057;-72
2022/09/08 05:44:28;;;;;;;12.00;7.10;;;;;;;12.43;77.65;99545.59;1719279;83;21092;-72
2022/09/08 05:46:54;;;;;;;13.32;7.80;;;;;;;12.58;77.22;99543.19;1719877;83;21049;-71
2022/09/08 05:49:23;;;;;;;18.57;7.75;;;;;;;12.69;76.62;99541.73;1719350;83;21674;-72
2022/09/08 05:51:52;;;;;;;14.47;7.05;;;;;;;12.83;76.41;99537.13;1719705;82;21089;-72
2022/09/08 05:54:19;;;;;;;11.25;7.15;;;;;;;13.01;75.80;99537.97;1735299;82;21621;-71
2022/09/08 05:56:47;;;;;;;8.43;6.45;;;;;;;13.19;75.07;99531.84;1735981;82;38098;-72
2022/09/08 05:59:14;;;;;;;21.85;7.90;;;;;;;13.36;74.28;99527.93;1743787;82;21090;-71
2022/09/08 06:01:40;;;;;;;19.50;7.92;;;;;;;13.49;74.34;99533.35;1743908;81;21217;-70
2022/09/08 06:04:07;;;;;;;14.10;5.65;;;;;;;13.65;74.24;99524.23;1743921;81;21016;-71
2022/09/08 06:06:33;;;;;;;12.70;7.20;;;;;;;13.83;73.67;99523.25;1714985;82;21559;-72
2022/09/08 06:09:03;;;;;;;13.22;7.05;;;;;;;14.05;73.40;99522.93;1739388;82;21035;-72
2022/09/08 06:11:32;;;;;;;11.93;6.75;;;;;;;14.27;72.62;99526.05;1734061;82;21004;-73
2022/09/08 06:13:58;;;;;;;13.48;6.33;;;;;;;14.46;71.89;99529.82;1734118;82;21137;-73
2022/09/08 06:16:26;;;;;;;14.47;6.65;;;;;;;14.64;71.89;99524.84;1733882;82;21095;-72
2022/09/08 06:18:52;;;;;;;13.58;8.05;;;;;;;14.89;71.46;99521.67;1734450;82;21418;-71
2022/09/08 06:21:22;;;;;;;16.30;10.45;;;;;;;15.18;70.76;99527.83;1701108;84;21046;-72
2022/09/08 06:23:54;;;;;;;25.23;14.10;;;;;;;15.58;68.88;99535.95;1698403;83;21062;-72
2022/09/08 06:26:56;;;;;;;22.93;13.10;;;;;;;15.58;68.88;99535.95;1720923;82;21126;-73
2022/09/08 06:29:47;;;;;;;14.03;9.00;;;;;;;15.69;68.35;99538.28;1729651;82;21067;-72
2022/09/08 06:32:36;;;;;;;9.78;7.83;;;;;;;15.75;67.85;99539.22;1653961;86;21062;-71
2022/09/08 06:35:14;;;;;;;13.38;7.20;;;;;;;15.80;67.05;99532.36;1647338;85;21093;-71
2022/09/08 06:37:52;;;;;;;10.65;7.42;;;;;;;15.80;66.62;99542.38;1654978;85;21053;-72
2022/09/08 06:40:37;;;;;;;14.23;7.00;;;;;;;15.82;66.82;99540.51;1698967;83;21319;-73
2022/09/08 06:43:15;;;;;;;13.48;5.87;;;;;;;15.92;66.45;99547.35;1685544;83;21585;-71
2022/09/08 06:45:49;;;;;;;11.12;6.00;;;;;;;15.97;65.80;99545.77;1714241;82;21081;-71
2022/09/08 06:48:30;;;;;;;11.63;6.50;;;;;;;15.94;65.44;99544.63;1733350;82;21068;-74
2022/09/08 06:51:11;;;;;;;10.23;6.55;;;;;;;15.89;65.59;99540.14;1711939;82;21057;-73
2022/09/08 06:53:44;;;;;;;12.13;6.00;;;;;;;15.90;65.95;99537.89;1731658;82;22275;-73
2022/09/08 06:57:03;;;;;;;7.37;5.22;;;;;;;15.96;65.51;99538.83;1686643;83;21066;-74
2022/09/08 07:00:10;;;;;;;12.13;5.83;;;;;;;16.06;64.76;99545.17;1663753;82;21028;-73
2022/09/08 07:03:25;;;;;;;14.70;5.97;;;;;;;16.20;64.24;99548.60;1747782;82;21595;-73
2022/09/08 07:06:07;;;;;;;9.18;4.85;;;;;;;16.39;63.32;99544.80;1748778;82;21571;-72
2022/09/08 07:08:57;;;;;;;9.65;5.42;;;;;;;16.54;62.46;99551.25;1748554;81;21216;-71
2022/09/08 07:11:51;;;;;;;7.40;5.50;;;;;;;16.69;61.71;99545.97;1725639;82;21056;-72
2022/09/08 07:14:56;;;;;;;6.22;4.70;;;;;;;16.77;61.27;99548.48;1743107;82;20965;-73
2022/09/08 07:18:00;;;;;;;8.20;5.00;;;;;;;16.82;60.06;99552.93;1740807;82;21045;-74
2022/09/08 07:20:28;;;;;;;10.05;5.00;;;;;;;16.87;59.95;99558.73;1697366;84;21055;-72
2022/09/08 07:23:11;;;;;;;6.95;5.40;;;;;;;16.95;58.76;99560.02;1739258;82;21169;-72
2022/09/08 07:25:46;;;;;;;8.33;4.90;;;;;;;17.01;59.06;99555.19;1694837;83;21079;-72
2022/09/08 07:28:19;;;;;;;13.03;4.78;;;;;;;17.01;59.06;99555.19;1688456;83;21628;-73
2022/09/08 07:30:58;;;;;;;11.50;5.75;;;;;;;17.18;58.01;99569.38;1682759;85;21143;-73
2022/09/08 07:33:38;;;;;;;14.05;5.35;;;;;;;17.32;56.92;99562.34;1680884;85;21272;-74
2022/09/08 07:36:47;;;;;;;8.50;4.87;;;;;;;17.37;56.69;99567.67;1680154;84;21150;-74
2022/09/08 07:39:43;;;;;;;10.68;5.30;;;;;;;17.40;56.56;99571.38;1678929;85;21027;-73
2022/09/08 07:42:15;;;;;;;13.83;4.62;;;;;;;17.31;55.76;99565.92;1709080;82;21045;-73
2022/09/08 07:44:42;;;;;;;8.18;4.33;;;;;;;17.23;56.29;99571.68;1737029;82;21019;-74
2022/09/08 07:47:35;;;;;;;7.15;4.60;;;;;;;17.21;56.67;99570.94;1723916;82;21056;-74
2022/09/08 07:53:46;;;;;;;5.85;4.37;;;;;;;17.08;55.99;99569.61;1732169;82;20979;-73
2022/09/08 07:56:25;;;;;;;;;;;;;;;16.97;56.17;99577.84;1729784;83;21019;-73
2022/09/08 07:59:26;;;;;;;7.78;4.83;;;;;;;16.91;56.38;99578.24;1726493;82;20175;-71
2022/09/08 08:02:04;;;;;;;7.50;4.78;;;;;;;16.85;56.76;99575.06;1726609;82;21054;-71
2022/09/08 08:05:03;;;;;;;9.35;4.67;;;;;;;16.83;56.11;99581.36;1726306;82;21167;-73
2022/09/08 08:08:14;;;;;;;11.10;3.90;;;;;;;16.77;56.48;99577.84;1726664;82;21027;-72
2022/09/08 08:11:07;;;;;;;9.15;4.62;;;;;;;16.74;56.90;99570.16;1681412;84;21079;-71
2022/09/08 08:14:05;;;;;;;6.92;4.45;;;;;;;16.70;56.64;99568.19;1674724;84;21131;-73
2022/09/08 08:16:43;;;;;;;8.38;4.20;;;;;;;16.73;56.54;99569.31;1713658;82;21006;-71
2022/09/08 08:19:42;;;;;;;6.15;4.30;;;;;;;16.85;56.32;99569.81;1719160;82;21663;-72
2022/09/08 08:22:34;;;;;;;8.93;4.72;;;;;;;17.00;55.82;99565.80;1707125;83;21509;-72
2022/09/08 08:25:16;;;;;;;6.87;4.05;;;;;;;17.15;54.46;99561.70;1727572;82;21075;-72
2022/09/08 08:27:50;;;;;;;6.42;3.80;;;;;;;17.31;54.25;99561.97;1693439;84;21051;-73
2022/09/08 08:30:22;;;;;;;9.85;4.55;;;;;;;17.45;53.15;99561.40;1693593;84;21080;-72
2022/09/08 08:33:03;;;;;;;7.75;4.22;;;;;;;17.57;53.59;99561.05;1730067;83;21130;-72
2022/09/08 08:35:40;;;;;;;8.48;4.10;;;;;;;17.73;51.97;99557.75;1694022;84;20987;-71
2022/09/08 08:38:06;;;;;;;6.20;3.75;;;;;;;17.87;50.88;99557.63;1728831;83;21002;-74
2022/09/08 08:40:59;;;;;;;8.05;4.20;;;;;;;18.01;51.65;99551.86;1693707;83;21036;-71
2022/09/08 08:43:40;;;;;;;9.00;3.98;;;;;;;18.16;50.21;99551.63;1693632;84;21575;-71
2022/09/08 08:46:46;;;;;;;6.25;4.10;;;;;;;18.28;49.56;99554.33;1729060;83;21488;-71
2022/09/08 08:49:35;;;;;;;5.65;3.92;;;;;;;18.40;49.46;99552.11;1693642;83;21381;-73
2022/09/08 08:52:29;;;;;;;5.62;3.98;;;;;;;18.65;49.06;99549.89;1728959;83;21002;-73
2022/09/08 08:55:20;;;;;;;5.83;4.42;;;;;;;18.85;48.10;99547.47;1693538;83;21031;-73
2022/09/08 08:58:28;;;;;;;12.80;4.45;;;;;;;19.08;48.20;99539.64;1683241;84;21060;-73
2022/09/08 09:01:09;;;;;;;8.80;3.90;;;;;;;19.34;47.29;99542.95;1729029;83;21589;-72
2022/09/08 09:04:19;;;;;;;12.40;4.42;;;;;;;19.50;47.67;99540.36;1673662;84;21087;-73
2022/09/08 09:07:31;;;;;;;6.58;4.00;;;;;;;19.53;47.06;99540.13;1693412;84;21044;-72
2022/09/08 09:10:07;;;;;;;7.22;3.95;;;;;;;19.60;47.29;99533.88;1693202;83;21145;-71
2022/09/08 09:12:55;;;;;;;7.90;4.12;;;;;;;19.67;46.92;99532.45;1734730;82;21031;-71
2022/09/08 09:15:48;;;;;;;6.17;4.00;;;;;;;19.64;46.38;99537.97;1743357;82;21126;-71
2022/09/08 09:18:56;;;;;;;8.43;3.87;;;;;;;19.52;46.36;99527.06;1730797;82;21089;-72
2022/09/08 09:21:43;;;;;;;10.85;4.40;;;;;;;19.52;46.91;99533.17;1732591;82;21507;-72
2022/09/08 09:24:41;;;;;;;4.90;3.62;;;;;;;19.52;47.01;99533.17;1732236;82;21042;-72
2022/09/08 09:27:29;;;;;;;11.70;3.40;;;;;;;19.56;47.26;99524.55;1732188;82;21132;-72
2022/09/08 09:30:19;;;;;;;6.83;3.45;;;;;;;19.64;47.12;99523.94;1732730;82;21101;-72
2022/09/08 09:33:11;;;;;;;14.28;4.15;;;;;;;19.68;45.83;99520.10;1733380;82;21042;-71
2022/09/08 09:36:06;;;;;;;7.83;3.58;;;;;;;19.66;46.09;99529.94;1733115;82;21045;-71
2022/09/08 09:38:56;;;;;;;10.03;3.90;;;;;;;19.69;45.62;99521.78;1733110;82;21049;-72
2022/09/08 09:42:12;;;;;;;9.93;3.92;;;;;;;19.73;45.35;99537.27;1732859;82;21002;-72
2022/09/08 09:44:56;;;;;;;6.42;4.33;;;;;;;19.72;44.76;99533.42;1732550;82;21128;-72
2022/09/08 09:47:47;;;;;;;14.23;4.12;;;;;;;19.72;44.35;99531.62;1732784;82;20952;-72
2022/09/08 09:50:55;;;;;;;6.28;3.83;;;;;;;19.72;43.82;99536.91;1732500;82;21046;-72
2022/09/08 09:54:00;;;;;;;6.62;3.83;;;;;;;19.72;44.13;99532.11;1713351;82;20938;-72
2022/09/08 09:56:39;;;;;;;6.80;3.50;;;;;;;19.80;44.39;99541.08;1729988;82;21041;-73
2022/09/08 09:59:46;;;;;;;13.78;3.85;;;;;;;19.89;44.25;99539.05;1732737;82;21201;-73
2022/09/08 10:02:36;;;;;;;8.60;3.40;;;;;;;19.95;43.82;99533.78;1705324;82;21300;-72
2022/09/08 10:05:37;;;;;;;3.83;3.20;;;;;;;20.03;43.46;99537.12;1719917;82;21407;-73
2022/09/08 10:08:49;;;;;;;6.70;3.12;;;;;;;20.07;42.83;99537.23;1703841;82;21092;-73
2022/09/08 10:11:39;;;;;;;3.87;3.33;;;;;;;20.09;42.94;99537.48;1732653;82;21058;-72
2022/09/08 10:14:46;;;;;;;5.60;3.40;;;;;;;20.14;43.25;99539.28;1730046;82;21585;-72
2022/09/08 10:17:37;;;;;;;6.50;3.15;;;;;;;20.23;43.08;99544.29;1729722;82;21097;-73
2022/09/08 10:20:30;;;;;;;11.18;3.33;;;;;;;20.34;42.45;99540.33;1672262;82;20982;-72
2022/09/08 10:23:37;;;;;;;8.58;3.80;;;;;;;20.39;42.23;99531.55;1728103;82;21034;-72
2022/09/08 10:26:25;;;;;;;8.73;3.75;;;;;;;20.48;41.72;99526.86;1696412;84;21558;-73
2022/09/08 10:29:29;;;;;;;8.68;3.72;;;;;;;20.60;41.40;99525.84;1715651;83;21297;-72
2022/09/08 10:32:39;;;;;;;8.28;3.55;;;;;;;20.72;41.20;99526.66;1716655;83;21097;-73
2022/09/08 10:35:40;;;;;;;11.63;3.70;;;;;;;20.87;40.87;99514.81;1656301;85;21080;-73
2022/09/08 10:38:30;;;;;;;4.70;3.27;;;;;;;20.97;40.70;99516.22;1721399;82;21039;-73
2022/09/08 10:41:08;;;;;;;7.80;3.42;;;;;;;21.07;40.06;99514.95;1667272;83;21040;-73
2022/09/08 10:44:17;;;;;;;7.70;2.98;;;;;;;21.14;39.90;99516.96;1708950;83;21215;-74
2022/09/08 10:46:59;;;;;;;6.87;3.50;;;;;;;21.19;39.31;99515.22;1717820;82;21503;-72
2022/09/08 10:50:15;;;;;;;5.47;3.50;;;;;;;21.24;39.17;99514.39;1726292;82;21045;-72
2022/09/08 10:53:02;;;;;;;5.97;3.83;;;;;;;21.29;39.14;99514.37;1726353;81;21017;-71
2022/09/08 10:56:09;;;;;;;8.90;3.85;;;;;;;21.35;37.78;99513.50;1709879;82;21048;-73
2022/09/08 10:58:59;;;;;;;5.92;3.25;;;;;;;21.35;38.33;99518.30;1708319;83;21898;-73
2022/09/08 11:02:04;;;;;;;6.62;3.62;;;;;;;21.26;38.04;99518.59;1670941;85;21432;-72
2022/09/08 11:05:19;;;;;;;6.95;3.92;;;;;;;21.07;38.64;99516.27;1670298;82;22105;-72
2022/09/08 11:08:07;;;;;;;7.65;3.70;;;;;;;20.85;39.21;99509.29;1674751;85;21438;-72
2022/09/08 11:10:58;;;;;;;8.03;3.90;;;;;;;20.60;39.33;99509.99;1727439;82;21069;-72
2022/09/08 11:13:38;;;;;;;5.25;3.95;;;;;;;20.40;39.33;99500.70;1700297;83;21144;-71
2022/09/08 11:16:25;;;;;;;4.17;3.20;;;;;;;20.26;39.62;99499.15;1693689;82;22112;-71
2022/09/08 11:19:38;;;;;;;6.95;3.72;;;;;;;20.24;40.54;99501.08;1719173;82;21093;-72
2022/09/08 11:22:28;;;;;;;4.60;3.53;;;;;;;20.29;41.39;99494.46;1734618;82;21525;-72
2022/09/08 11:25:20;;;;;;;4.90;3.83;;;;;;;20.41;39.99;99495.29;1714093;82;21491;-72
2022/09/08 11:28:08;;;;;;;;;;;;;;;20.53;39.51;99490.34;1733374;82;21299;-72
2022/09/08 11:31:00;;;;;;;5.08;3.65;;;;;;;20.62;38.91;99485.60;1730036;82;20170;-72
2022/09/08 11:33:44;;;;;;;8.23;3.80;;;;;;;20.68;38.33;99486.91;1732273;82;21053;-72
2022/09/08 11:36:39;;;;;;;5.37;3.22;;;;;;;20.71;38.05;99483.17;1687869;82;21026;-71
2022/09/08 11:39:11;;;;;;;8.20;3.85;;;;;;;20.77;38.21;99480.88;1723361;82;21050;-71
2022/09/08 11:42:03;;;;;;;4.25;2.98;;;;;;;20.83;38.35;99481.66;1723507;82;21258;-73
2022/09/08 11:44:46;;;;;;;5.58;3.70;;;;;;;20.86;36.94;99483.21;1722023;82;21034;-72
2022/09/08 11:47:30;;;;;;;5.17;3.52;;;;;;;20.84;36.78;99482.50;1739022;81;21041;-71
2022/09/08 11:50:37;;;;;;;9.45;3.60;;;;;;;20.81;36.58;99486.23;1704509;82;21272;-73
2022/09/08 11:53:35;;;;;;;3.55;2.90;;;;;;;20.81;36.11;99485.39;1712438;83;21044;-73
2022/09/08 11:56:25;;;;;;;9.43;3.87;;;;;;;20.78;36.19;99498.89;1712317;83;21233;-73
2022/09/08 11:59:32;;;;;;;5.15;3.35;;;;;;;20.79;36.25;99489.97;1712625;82;21011;-71
2022/09/08 12:02:44;;;;;;;4.22;3.37;;;;;;;20.84;35.66;99493.07;1712498;82;21006;-72
2022/09/08 12:05:25;;;;;;;7.72;3.70;;;;;;;20.86;35.50;99483.21;1713529;83;21011;-71
2022/09/08 12:08:14;;;;;;;5.62;3.45;;;;;;;20.86;35.35;99481.89;1713827;82;21493;-72
2022/09/08 12:11:34;;;;;;;4.78;3.20;;;;;;;20.91;35.28;99477.91;1719665;82;21143;-72
2022/09/08 12:14:27;;;;;;;5.33;2.87;;;;;;;21.00;34.62;99472.30;1737792;82;21141;-72
2022/09/08 12:17:31;;;;;;;6.58;3.02;;;;;;;21.07;33.98;99476.60;1743256;82;21012;-72
2022/09/08 12:20:22;;;;;;;5.55;3.15;;;;;;;21.10;33.53;99468.41;1742590;82;21480;-73
2022/09/08 12:23:22;;;;;;;5.83;3.10;;;;;;;21.10;33.49;99476.34;1743470;82;21576;-73
2022/09/08 12:26:40;;;;;;;8.78;3.05;;;;;;;21.10;33.34;99473.70;1742977;82;21718;-73
2022/09/08 12:29:15;;;;;;;5.87;3.52;;;;;;;21.07;33.24;99477.92;1743399;82;20996;-72
2022/09/08 12:32:20;;;;;;;4.45;3.22;;;;;;;21.07;32.94;99477.44;1742875;82;20983;-72